Time;durP1;ratioP1;P1;durP2;ratioP2;P2;SDS_P1;SDS_P2;PMS_P1;PMS_P2;Temp;Humidity;BMP_temperature;BMP_pressure;BME280_temperature;BME280_humidity;BME280_pressure;Samples;Min_cycle;Max_cycle;Signal;HPM_P1;HPM_P2
2023/05/21 18:05:01;;;;;;;;;;;;;;;11.39;100.00;99194.19;5094801;27;19920;-80
2023/05/21 18:07:29;;;;;;;;;;;;;;;7.71;100.00;99209.91;5107686;27;20334;-85
2023/05/21 18:10:22;;;;;;;;;;;;;;;7.40;100.00;99215.50;5094976;27;20387;-85
2023/05/21 18:12:47;;;;;;;;;;;;;;;6.90;100.00;99213.88;5126510;27;19957;-85
2023/05/21 18:15:12;;;;;;;;;;;;;;;6.77;100.00;99217.91;5093298;28;19999;-85
2023/05/21 18:17:38;;;;;;;;;;;;;;;6.66;100.00;99219.13;5092335;28;19970;-84
2023/05/21 18:20:03;;;;;;;;;;;;;;;6.59;100.00;99222.91;5120613;27;19925;-85
2023/05/21 18:22:29;;;;;;;;;;;;;;;6.61;100.00;99220.22;5091084;28;19924;-82
2023/05/21 18:24:54;;;;;;;;;;;;;;;6.55;100.00;99210.75;5124242;27;19927;-85
2023/05/21 18:27:19;;;;;;;;;;;;;;;6.52;100.00;99216.97;5090197;28;19982;-84
2023/05/21 18:29:47;;;;;;;;;;;;;;;6.58;100.00;99221.19;5094343;28;19928;-86
2023/05/21 18:32:14;;;;;;;;;;;;;;;6.51;100.00;99214.41;5094400;28;20018;-85
2023/05/21 18:34:41;;;;;;;;;;;;;;;6.47;100.00;99220.69;5095374;28;19931;-85
2023/05/21 18:37:06;;;;;;;;;;;;;;;6.49;100.00;99214.47;5089511;28;19948;-84
2023/05/21 18:39:32;;;;;;;;;;;;;;;6.52;100.00;99214.34;5092605;28;19955;-86
2023/05/21 18:41:57;;;;;;;;;;;;;;;6.40;100.00;99213.91;5086946;28;19955;-86
2023/05/21 18:44:22;;;;;;;;;;;;;;;6.48;100.00;99217.16;5094092;28;19924;-84
2023/05/21 18:46:48;;;;;;;;;;;;;;;6.46;100.00;99222.47;5091962;28;19920;-85
2023/05/21 18:49:13;;;;;;;;;;;;;;;6.41;100.00;99220.91;5095044;28;19924;-86
2023/05/21 18:51:38;;;;;;;;;;;;;;;6.37;100.00;99217.53;5091573;28;19986;-83
2023/05/21 18:54:04;;;;;;;;;;;;;;;6.50;100.00;99213.56;5080474;28;19920;-88
2023/05/21 18:56:29;;;;;;;;;;;;;;;6.43;100.00;99221.72;5083879;28;19920;-84
2023/05/21 18:58:54;;;;;;;;;;;;;;;6.47;100.00;99224.19;5092559;28;19926;-86
2023/05/21 19:01:20;;;;;;;;;;;;;;;6.40;100.00;99221.81;5087834;28;19969;-85
2023/05/21 19:03:45;;;;;;;;;;;;;;;6.40;100.00;99221.81;5094108;28;19916;-85
2023/05/21 19:06:10;;;;;;;;;;;;;;;6.41;100.00;99229.66;5095528;28;19920;-85
2023/05/21 19:08:36;;;;;;;;;;;;;;;6.39;100.00;99226.22;5093097;28;19921;-86
2023/05/21 19:11:01;;;;;;;;;;;;;;;6.37;100.00;99230.69;5090121;28;19997;-85
2023/05/21 19:13:26;;;;;;;;;;;;;;;6.41;100.00;99228.81;5095436;28;20014;-86
2023/05/21 19:15:56;;;;;;;;;;;;;;;6.37;100.00;99230.69;5094038;28;19920;-84
2023/05/21 19:18:21;;;;;;;;;;;;;;;6.38;100.00;99226.28;5089693;28;20336;-83
2023/05/21 19:20:46;;;;;;;;;;;;;;;6.49;100.00;99229.41;5088541;28;19963;-86
2023/05/21 19:23:11;;;;;;;;;;;;;;;6.46;100.00;99237.41;5078298;28;19920;-85
2023/05/21 19:25:37;;;;;;;;;;;;;;;6.52;100.00;99229.28;5080587;28;20283;-84
2023/05/21 19:28:02;;;;;;;;;;;;;;;6.53;100.00;99237.13;5077332;28;19920;-86
2023/05/21 19:30:27;;;;;;;;;;;;;;;6.42;100.00;99239.28;5083439;28;20303;-85
2023/05/21 19:32:53;;;;;;;;;;;;;;;6.51;100.00;99243.34;5081345;28;19928;-85
2023/05/21 19:35:19;;;;;;;;;;;;;;;6.45;100.00;99235.69;5082814;28;19938;-84
2023/05/21 19:37:44;;;;;;;;;;;;;;;6.60;100.00;99240.41;5076436;28;19928;-86
2023/05/21 19:40:09;;;;;;;;;;;;;;;6.62;100.00;99233.34;5080112;28;19920;-84
2023/05/21 19:42:35;;;;;;;;;;;;;;;6.51;100.00;99243.34;5079956;28;20958;-85
2023/05/21 19:45:01;;;;;;;;;;;;;;;6.40;100.00;99240.22;5080190;28;19982;-86
2023/05/21 19:47:26;;;;;;;;;;;;;;;6.44;100.00;99244.50;5078683;28;20376;-85
2023/05/21 19:49:52;;;;;;;;;;;;;;;6.47;100.00;99260.19;5077990;28;19924;-87
2023/05/21 19:52:17;;;;;;;;;;;;;;;6.35;100.00;99250.91;5078643;28;19930;-84
2023/05/21 19:54:43;;;;;;;;;;;;;;;6.41;100.00;99247.22;5083227;28;19920;-88
2023/05/21 19:57:08;;;;;;;;;;;;;;;6.48;100.00;99256.66;5078497;28;20018;-87
2023/05/21 19:59:33;;;;;;;;;;;;;;;6.38;100.00;99256.06;5075737;28;19975;-86
2023/05/21 20:01:59;;;;;;;;;;;;;;;6.39;100.00;99262.22;5078489;28;19917;-86
2023/05/21 20:04:24;;;;;;;;;;;;;;;6.48;100.00;99256.66;5079168;28;19989;-87
2023/05/21 20:06:50;;;;;;;;;;;;;;;6.39;100.00;99267.47;5079616;28;19924;-85
2023/05/21 20:09:16;;;;;;;;;;;;;;;6.40;100.00;99263.91;5078797;28;19924;-86
2023/05/21 20:11:42;;;;;;;;;;;;;;;6.39;100.00;99273.59;5075140;28;19961;-86
2023/05/21 20:14:07;;;;;;;;;;;;;;;6.39;100.00;99264.84;5070095;28;20329;-86
2023/05/21 20:16:33;;;;;;;;;;;;;;;6.35;100.00;99272.84;5081974;28;19917;-86
2023/05/21 20:19:00;;;;;;;;;;;;;;;6.45;100.00;99272.53;5081474;28;19916;-86
2023/05/21 20:21:25;;;;;;;;;;;;;;;6.47;100.00;99275.97;5080587;28;20384;-86
2023/05/21 20:23:51;;;;;;;;;;;;;;;6.44;100.00;99273.44;5080561;28;20023;-85
2023/05/21 20:26:20;;;;;;;;;;;;;;;6.42;100.00;99275.28;5076247;28;19982;-85
2023/05/21 20:28:45;;;;;;;;;;;;;;;6.52;100.00;99279.31;5079263;28;19966;-85
2023/05/21 20:31:11;;;;;;;;;;;;;;;6.50;100.00;99279.34;5080250;28;19920;-86
2023/05/21 20:33:36;;;;;;;;;;;;;;;6.45;100.00;99283.06;5074434;28;19920;-86
2023/05/21 20:36:02;;;;;;;;;;;;;;;6.49;100.00;99268.88;5080012;28;19923;-84
2023/05/21 20:38:31;;;;;;;;;;;;;;;6.33;100.00;99276.44;5074280;28;20014;-85
2023/05/21 20:40:56;;;;;;;;;;;;;;;6.37;100.00;99275.44;5079443;28;19924;-85
2023/05/21 20:43:23;;;;;;;;;;;;;;;6.41;100.00;99276.19;5079411;28;20015;-85
2023/05/21 20:45:48;;;;;;;;;;;;;;;6.36;100.00;99279.81;5079986;28;20485;-85
2023/05/21 20:48:13;;;;;;;;;;;;;;;6.45;100.00;99283.06;5074636;28;20011;-85
2023/05/21 20:50:40;;;;;;;;;;;;;;;6.45;100.00;99281.28;5081589;28;20295;-85
2023/05/21 20:53:06;;;;;;;;;;;;;;;6.46;100.00;99275.13;5081080;28;19916;-85
2023/05/21 20:55:33;;;;;;;;;;;;;;;6.44;100.00;99279.56;5080231;28;19928;-85
2023/05/21 20:58:02;;;;;;;;;;;;;;;6.45;100.00;99277.81;5071091;28;19970;-86
2023/05/21 21:00:27;;;;;;;;;;;;;;;6.46;100.00;99279.50;5078887;28;19969;-86
2023/05/21 21:02:53;;;;;;;;;;;;;;;6.50;100.00;99283.78;5078756;28;19920;-85
2023/05/21 21:05:19;;;;;;;;;;;;;;;6.42;100.00;99280.53;5077562;28;19931;-85
2023/05/21 21:07:44;;;;;;;;;;;;;;;6.50;100.00;99281.97;5080335;28;19928;-85
2023/05/21 21:10:09;;;;;;;;;;;;;;;6.38;100.00;99292.06;5079555;28;19924;-86
2023/05/21 21:12:35;;;;;;;;;;;;;;;6.33;100.00;99285.22;5079942;28;20259;-85
2023/05/21 21:15:00;;;;;;;;;;;;;;;6.40;100.00;99295.50;5082976;28;20007;-85
2023/05/21 21:17:25;;;;;;;;;;;;;;;6.39;100.00;99288.53;5077911;28;19924;-86
2023/05/21 21:19:50;;;;;;;;;;;;;;;6.36;100.00;99284.22;5081665;28;19950;-85
2023/05/21 21:22:16;;;;;;;;;;;;;;;6.46;100.00;99296.19;5081201;28;19923;-85
2023/05/21 21:24:42;;;;;;;;;;;;;;;6.43;100.00;99291.00;5081745;28;19924;-84
2023/05/21 21:27:07;;;;;;;;;;;;;;;6.41;100.00;99282.28;5076787;28;19974;-85
2023/05/21 21:29:33;;;;;;;;;;;;;;;6.33;100.00;99285.22;5082274;28;19942;-84
2023/05/21 21:31:58;;;;;;;;;;;;;;;6.30;100.00;99285.31;5078977;28;20318;-85
2023/05/21 21:34:24;;;;;;;;;;;;;;;6.36;100.00;99287.72;5082906;28;20034;-86
2023/05/21 21:36:49;;;;;;;;;;;;;;;6.38;100.00;99286.81;5080552;28;20306;-86
2023/05/21 21:39:16;;;;;;;;;;;;;;;6.36;100.00;99290.34;5081542;28;19943;-84
2023/05/21 21:41:41;;;;;;;;;;;;;;;6.35;100.00;99288.63;5072733;28;19920;-85
2023/05/21 21:44:07;;;;;;;;;;;;;;;6.38;100.00;99286.81;5079891;28;19923;-86
2023/05/21 21:46:32;;;;;;;;;;;;;;;6.27;100.00;99288.03;5076788;28;20018;-84
2023/05/21 21:48:57;;;;;;;;;;;;;;;6.37;100.00;99285.97;5079974;28;19923;-85
2023/05/21 21:51:22;;;;;;;;;;;;;;;6.34;100.00;99286.06;5080461;28;19920;-85
2023/05/21 21:53:47;;;;;;;;;;;;;;;6.33;100.00;99282.56;5080800;28;19951;-86
2023/05/21 21:56:13;;;;;;;;;;;;;;;6.25;100.00;99286.34;5079097;28;20038;-85
2023/05/21 21:58:38;;;;;;;;;;;;;;;6.33;100.00;99290.47;5081134;28;19967;-85
2023/05/21 22:01:03;;;;;;;;;;;;;;;6.39;100.00;99283.28;5079828;28;19932;-83
2023/05/21 22:03:31;;;;;;;;;;;;;;;6.39;100.00;99283.28;5076730;28;19970;-84
2023/05/21 22:05:56;;;;;;;;;;;;;;;6.37;100.00;99285.97;5080780;28;19916;-84
2023/05/21 22:08:22;;;;;;;;;;;;;;;6.35;100.00;99286.00;5079836;28;19925;-83
2023/05/21 22:10:47;;;;;;;;;;;;;;;6.35;100.00;99290.38;5080825;28;19920;-84
2023/05/21 22:13:13;;;;;;;;;;;;;;;6.35;100.00;99293.91;5078447;28;19919;-84
2023/05/21 22:15:38;;;;;;;;;;;;;;;6.27;100.00;99288.03;5079329;28;19920;-85
2023/05/21 22:18:03;;;;;;;;;;;;;;;6.30;100.00;99292.31;5079564;28;20382;-86
2023/05/21 22:20:29;;;;;;;;;;;;;;;6.32;100.00;99288.75;5081871;28;19999;-85
2023/05/21 22:22:55;;;;;;;;;;;;;;;6.36;100.00;99289.50;5080081;28;19916;-85
2023/05/21 22:25:20;;;;;;;;;;;;;;;6.16;100.00;99298.06;5079022;28;19924;-85
2023/05/21 22:27:45;;;;;;;;;;;;;;;6.27;100.00;99290.66;5080900;28;20008;-85
2023/05/21 22:30:11;;;;;;;;;;;;;;;6.34;100.00;99297.44;5081784;28;19923;-86
2023/05/21 22:32:36;;;;;;;;;;;;;;;6.35;100.00;99303.53;5081421;28;19920;-84
2023/05/21 22:35:01;;;;;;;;;;;;;;;6.35;100.00;99296.53;5081494;28;19923;-84
2023/05/21 22:37:27;;;;;;;;;;;;;;;6.30;100.00;99297.59;5081943;28;20358;-83
2023/05/21 22:39:52;;;;;;;;;;;;;;;6.39;100.00;99301.69;5081213;28;19916;-84
2023/05/21 22:42:17;;;;;;;;;;;;;;;6.41;100.00;99297.22;5080711;28;19920;-84
2023/05/21 22:44:42;;;;;;;;;;;;;;;6.40;100.00;99292.88;5081613;28;19916;-85
2023/05/21 22:47:08;;;;;;;;;;;;;;;6.39;100.00;99296.44;5081196;28;19927;-85
2023/05/21 22:49:34;;;;;;;;;;;;;;;6.44;100.00;99297.97;5081673;28;19920;-84
2023/05/21 22:52:03;;;;;;;;;;;;;;;6.40;100.00;99290.22;5078896;28;19924;-84
2023/05/21 22:54:31;;;;;;;;;;;;;;;6.36;100.00;99295.59;5076163;28;19943;-85
2023/05/21 22:56:57;;;;;;;;;;;;;;;6.41;100.00;99294.59;5083447;28;19958;-87
2023/05/21 22:59:23;;;;;;;;;;;;;;;6.45;100.00;99288.34;5083827;28;19956;-86
2023/05/21 23:01:48;;;;;;;;;;;;;;;6.38;100.00;99295.53;5085565;28;19989;-85
2023/05/21 23:04:14;;;;;;;;;;;;;;;6.35;100.00;99288.63;5083896;28;19921;-85
2023/05/21 23:06:39;;;;;;;;;;;;;;;6.43;100.00;99284.88;5085011;28;19916;-85
2023/05/21 23:09:05;;;;;;;;;;;;;;;6.37;100.00;99293.84;5084755;28;19920;-85
2023/05/21 23:11:30;;;;;;;;;;;;;;;6.40;100.00;99295.50;5083625;28;19927;-85
2023/05/21 23:13:55;;;;;;;;;;;;;;;6.39;100.00;99283.28;5084792;28;19991;-82
2023/05/21 23:16:21;;;;;;;;;;;;;;;6.41;100.00;99292.81;5084950;28;20355;-85
2023/05/21 23:18:48;;;;;;;;;;;;;;;6.41;100.00;99286.69;5084712;28;19917;-84
2023/05/21 23:21:13;;;;;;;;;;;;;;;6.36;100.00;99285.06;5083785;28;20314;-85
2023/05/21 23:23:39;;;;;;;;;;;;;;;6.43;100.00;99288.38;5084452;28;19920;-84
2023/05/21 23:26:04;;;;;;;;;;;;;;;6.47;100.00;99289.13;5082402;28;20006;-85
2023/05/21 23:28:29;;;;;;;;;;;;;;;6.42;100.00;99288.44;5084125;28;19927;-85
2023/05/21 23:30:54;;;;;;;;;;;;;;;6.40;100.00;99290.22;5084596;28;20013;-85
2023/05/21 23:33:20;;;;;;;;;;;;;;;6.38;100.00;99292.06;5086119;28;19928;-88
